createdAt,value
2022-10-09T00:00:26.142Z,21.92
2022-10-09T00:02:54.205Z,21.98
2022-10-09T00:05:23.775Z,20.38
2022-10-09T00:07:52.889Z,20.52
2022-10-09T00:10:20.924Z,27.25
2022-10-09T00:12:49.559Z,24.52
2022-10-09T00:15:17.570Z,35.92
2022-10-09T00:17:45.602Z,19.83
2022-10-09T00:20:13.592Z,20.40
2022-10-09T00:22:41.175Z,24.08
2022-10-09T00:25:11.194Z,24.60
2022-10-09T00:27:39.785Z,22.95
2022-10-09T00:30:09.404Z,19.02
2022-10-09T00:32:37.363Z,14.32
2022-10-09T00:35:05.671Z,19.77
2022-10-09T00:37:33.493Z,27.45
2022-10-09T00:40:01.966Z,22.33
2022-10-09T00:42:31.162Z,21.73
2022-10-09T00:45:01.881Z,18.93
2022-10-09T00:47:33.204Z,20.30
2022-10-09T00:50:06.539Z,17.50
2022-10-09T00:52:34.685Z,21.95
2022-10-09T00:55:03.659Z,14.38
2022-10-09T00:57:34.696Z,18.23
2022-10-09T01:00:07.026Z,15.95
2022-10-09T01:02:34.684Z,16.85
2022-10-09T01:05:02.390Z,17.73
2022-10-09T01:07:36.440Z,23.30
2022-10-09T01:10:13.877Z,17.33
2022-10-09T01:12:48.810Z,13.50
2022-10-09T01:15:19.355Z,18.15
2022-10-09T01:17:54.791Z,30.27
2022-10-09T01:20:46.195Z,23.83
2022-10-09T01:23:38.621Z,21.90
2022-10-09T01:26:35.464Z,20.67
2022-10-09T01:29:07.881Z,17.80
2022-10-09T01:31:40.239Z,19.95
2022-10-09T01:34:08.799Z,29.00
2022-10-09T01:36:39.684Z,23.83
2022-10-09T01:39:10.056Z,19.27
2022-10-09T01:41:39.191Z,23.52
2022-10-09T01:44:18.503Z,23.38
2022-10-09T01:46:46.706Z,19.73
2022-10-09T01:49:21.836Z,24.10
2022-10-09T01:51:53.765Z,25.63
2022-10-09T01:54:31.015Z,19.85
2022-10-09T01:57:01.231Z,18.10
2022-10-09T01:59:31.305Z,16.13
2022-10-09T02:02:00.666Z,19.30
2022-10-09T02:04:28.950Z,22.53
2022-10-09T02:06:57.410Z,17.73
2022-10-09T02:09:25.699Z,23.35
2022-10-09T02:11:55.905Z,16.08
2022-10-09T02:14:24.153Z,21.75
2022-10-09T02:16:58.425Z,24.88
2022-10-09T02:19:31.998Z,23.52
2022-10-09T02:22:02.462Z,18.88
2022-10-09T02:24:30.621Z,24.47
2022-10-09T02:26:59.538Z,26.13
2022-10-09T02:29:27.610Z,24.45
2022-10-09T02:31:56.880Z,18.40
2022-10-09T02:34:25.845Z,15.38
2022-10-09T02:36:55.308Z,22.02
2022-10-09T02:39:23.025Z,21.92
2022-10-09T02:41:50.651Z,14.80
2022-10-09T02:44:18.305Z,14.82
2022-10-09T02:46:46.135Z,18.93
2022-10-09T02:49:16.061Z,11.95
2022-10-09T02:51:44.884Z,13.35
2022-10-09T02:54:13.009Z,16.03
2022-10-09T02:56:42.005Z,20.40
2022-10-09T02:59:09.899Z,24.60
2022-10-09T03:01:37.592Z,24.98
2022-10-09T03:04:05.473Z,21.25
2022-10-09T03:06:35.726Z,12.93
2022-10-09T03:09:04.694Z,19.48
2022-10-09T03:11:32.332Z,26.13
2022-10-09T03:14:00.528Z,18.43
2022-10-09T03:16:28.786Z,14.40
2022-10-09T03:18:56.549Z,15.18
2022-10-09T03:21:26.756Z,14.80
2022-10-09T03:23:56.899Z,13.88
2022-10-09T03:26:26.626Z,22.10
2022-10-09T03:28:55.478Z,19.45
2022-10-09T03:34:13.993Z,21.80
2022-10-09T03:36:42.223Z,14.97
2022-10-09T03:39:11.726Z,18.27
2022-10-09T03:41:41.296Z,20.17
2022-10-09T03:44:09.401Z,18.80
2022-10-09T03:46:37.800Z,14.70
2022-10-09T03:49:05.981Z,19.45
2022-10-09T03:51:33.840Z,16.08
2022-10-09T03:54:02.406Z,18.52
2022-10-09T03:56:32.096Z,19.38
2022-10-09T03:59:01.062Z,14.00
2022-10-09T04:01:28.957Z,25.25
2022-10-09T04:03:57.735Z,22.55
2022-10-09T04:06:27.341Z,22.30
2022-10-09T04:08:55.004Z,16.13
2022-10-09T04:11:23.682Z,23.48
2022-10-09T04:13:52.737Z,28.83
2022-10-09T04:16:21.319Z,20.20
2022-10-09T04:18:48.930Z,19.73
2022-10-09T04:21:16.581Z,18.30
2022-10-09T04:23:44.277Z,107.93
2022-10-09T04:26:12.738Z,17.25
2022-10-09T04:28:41.081Z,19.83
2022-10-09T04:31:11.209Z,14.45
2022-10-09T04:33:38.917Z,13.27
2022-10-09T04:36:08.367Z,18.80
2022-10-09T04:38:36.430Z,16.20
2022-10-09T04:41:05.906Z,20.77
2022-10-09T04:43:34.612Z,16.70
2022-10-09T04:46:05.232Z,23.67
2022-10-09T04:48:38.799Z,17.37
2022-10-09T04:51:08.102Z,14.25
2022-10-09T04:53:36.856Z,12.70
2022-10-09T04:56:06.183Z,18.37
2022-10-09T04:58:35.439Z,24.63
2022-10-09T05:01:07.599Z,17.67
2022-10-09T05:03:38.724Z,18.23
2022-10-09T05:06:08.744Z,23.52
2022-10-09T05:08:37.756Z,13.97
2022-10-09T05:11:09.300Z,23.80
2022-10-09T05:13:39.071Z,18.40
2022-10-09T05:16:11.127Z,16.85
2022-10-09T05:18:46.290Z,16.60
2022-10-09T05:21:14.559Z,16.88
2022-10-09T05:23:42.377Z,15.43
2022-10-09T05:26:13.702Z,15.60
2022-10-09T05:28:41.747Z,14.40
2022-10-09T05:31:10.159Z,16.90
2022-10-09T05:33:37.850Z,18.95
2022-10-09T05:36:07.903Z,21.17
2022-10-09T05:38:35.724Z,35.37
2022-10-09T05:41:05.833Z,28.85
2022-10-09T05:43:36.098Z,17.05
2022-10-09T05:46:08.685Z,26.90
2022-10-09T05:48:38.697Z,20.13
2022-10-09T05:51:13.801Z,37.67
2022-10-09T05:53:43.381Z,31.48
2022-10-09T05:56:16.591Z,53.60
2022-10-09T05:58:45.634Z,139.13
2022-10-09T06:01:15.193Z,40.88
2022-10-09T06:03:43.023Z,34.08
2022-10-09T06:06:12.180Z,19.08
2022-10-09T06:08:40.197Z,20.65
2022-10-09T06:11:13.016Z,15.97
2022-10-09T06:13:41.887Z,17.15
2022-10-09T06:16:11.488Z,16.02
2022-10-09T06:18:40.818Z,16.92
2022-10-09T06:21:09.208Z,20.77
2022-10-09T06:23:38.982Z,17.40
2022-10-09T06:26:09.436Z,17.23
2022-10-09T06:28:38.516Z,14.73
2022-10-09T06:31:07.655Z,29.00
2022-10-09T06:33:37.018Z,17.13
2022-10-09T06:36:10.187Z,21.60
2022-10-09T06:38:40.901Z,22.90
2022-10-09T06:41:10.144Z,23.60
2022-10-09T06:43:38.119Z,15.48
2022-10-09T06:46:09.359Z,18.40
2022-10-09T06:48:38.575Z,29.10
2022-10-09T06:51:08.528Z,15.77
2022-10-09T06:53:37.638Z,18.33
2022-10-09T06:56:08.567Z,16.65
2022-10-09T06:58:37.438Z,17.17
2022-10-09T07:01:10.059Z,17.13
2022-10-09T07:03:39.357Z,17.10
2022-10-09T07:06:08.674Z,20.27
2022-10-09T07:08:37.561Z,17.63
2022-10-09T07:11:15.563Z,19.48
2022-10-09T07:13:44.755Z,22.92
2022-10-09T07:16:13.032Z,16.60
2022-10-09T07:18:46.200Z,20.35
2022-10-09T07:21:13.901Z,22.10
2022-10-09T07:23:41.718Z,20.20
2022-10-09T07:26:14.473Z,20.73
2022-10-09T07:28:43.325Z,21.25
2022-10-09T07:31:11.930Z,25.70
2022-10-09T07:33:40.177Z,28.30
2022-10-09T07:36:08.248Z,22.67
2022-10-09T07:38:35.784Z,18.00
2022-10-09T07:41:05.132Z,31.95
2022-10-09T07:43:35.964Z,28.75
2022-10-09T07:46:05.396Z,21.52
2022-10-09T07:48:35.071Z,28.98
2022-10-09T07:51:08.943Z,22.23
2022-10-09T07:53:37.576Z,34.33
2022-10-09T07:56:05.845Z,23.30
2022-10-09T07:58:35.360Z,31.10
2022-10-09T08:01:11.769Z,26.13
2022-10-09T08:03:42.399Z,23.00
2022-10-09T08:06:10.666Z,35.97
2022-10-09T08:08:38.495Z,34.67
2022-10-09T08:11:10.348Z,23.88
2022-10-09T08:13:40.169Z,28.13
2022-10-09T08:16:08.260Z,28.23
2022-10-09T08:18:36.760Z,28.37
2022-10-09T08:21:06.723Z,40.35
2022-10-09T08:24:38.657Z,25.63
2022-10-09T08:27:07.520Z,33.47
2022-10-09T08:29:40.061Z,34.92
2022-10-09T08:32:09.110Z,31.83
2022-10-09T08:34:36.767Z,28.83
2022-10-09T08:37:04.615Z,31.73
2022-10-09T08:39:32.496Z,33.05
2022-10-09T08:42:03.517Z,40.95
2022-10-09T08:44:38.161Z,32.90
2022-10-09T08:47:09.681Z,41.00
2022-10-09T08:49:42.638Z,31.30
2022-10-09T08:52:26.437Z,38.70
2022-10-09T08:54:57.212Z,38.42
2022-10-09T08:57:30.466Z,43.10
2022-10-09T08:59:59.469Z,31.73
2022-10-09T09:02:37.365Z,36.08
2022-10-09T09:05:16.635Z,33.10
2022-10-09T09:07:51.292Z,29.73
2022-10-09T09:10:25.800Z,29.83
2022-10-09T09:12:56.810Z,28.25
2022-10-09T09:15:36.932Z,20.88
2022-10-09T09:21:49.759Z,27.05
2022-10-09T09:24:20.388Z,18.80
2022-10-09T09:26:50.447Z,28.40
2022-10-09T09:29:22.973Z,15.57
2022-10-09T09:31:58.277Z,19.58
2022-10-09T09:34:37.900Z,27.20
2022-10-09T09:37:05.844Z,22.23
2022-10-09T09:40:30.888Z,14.03
2022-10-09T09:42:27.755Z,15.52
2022-10-09T09:44:58.986Z,12.90
2022-10-09T09:47:34.764Z,15.88
2022-10-09T09:50:04.518Z,16.45
2022-10-09T09:52:36.093Z,10.95
2022-10-09T09:55:04.997Z,11.40
2022-10-09T09:57:36.587Z,13.77
2022-10-09T10:00:20.553Z,12.73
2022-10-09T10:02:50.765Z,11.95
2022-10-09T10:05:24.368Z,8.60
2022-10-09T10:07:56.522Z,12.10
2022-10-09T10:10:27.100Z,8.60
2022-10-09T10:12:56.856Z,11.60
2022-10-09T10:15:26.776Z,13.30
2022-10-09T10:18:03.901Z,9.87
2022-10-09T10:20:32.984Z,8.27
2022-10-09T10:23:02.006Z,7.28
2022-10-09T10:25:37.778Z,7.47
2022-10-09T10:28:09.587Z,13.70
2022-10-09T10:30:42.430Z,9.35
2022-10-09T10:33:19.765Z,9.93
2022-10-09T10:35:51.341Z,9.20
2022-10-09T10:38:22.493Z,8.25
2022-10-09T10:40:54.002Z,8.25
2022-10-09T10:43:30.887Z,8.65
2022-10-09T11:01:22.469Z,8.82
2022-10-09T11:04:12.638Z,10.30
2022-10-09T11:06:46.140Z,7.50
2022-10-09T11:09:17.670Z,8.07
2022-10-09T11:11:50.146Z,6.70
2022-10-09T11:14:29.565Z,8.80
2022-10-09T11:17:02.305Z,9.53
2022-10-09T11:19:50.526Z,5.75
2022-10-09T11:22:29.557Z,6.63
2022-10-09T11:25:05.044Z,6.60
2022-10-09T11:27:39.276Z,7.93
2022-10-09T11:30:10.707Z,11.07
2022-10-09T11:35:16.200Z,6.05
2022-10-09T11:37:44.916Z,4.00
2022-10-09T11:40:16.004Z,6.53
2022-10-09T11:42:43.951Z,7.63
2022-10-09T11:45:21.991Z,8.37
2022-10-09T11:47:57.564Z,5.55
2022-10-09T11:50:41.054Z,12.10
2022-10-09T11:53:12.015Z,6.00
2022-10-09T11:55:40.762Z,5.70
2022-10-09T11:58:14.850Z,6.60
2022-10-09T12:00:43.237Z,7.20
2022-10-09T12:03:25.104Z,5.68
2022-10-09T12:06:08.041Z,6.20
2022-10-09T12:08:35.752Z,9.23
2022-10-09T12:11:11.796Z,6.43
2022-10-09T12:13:46.896Z,7.10
2022-10-09T12:16:36.689Z,6.50
2022-10-09T12:19:07.383Z,7.28
2022-10-09T12:21:39.524Z,8.48
2022-10-09T12:24:08.172Z,8.85
2022-10-09T12:26:36.518Z,10.90
2022-10-09T12:29:05.213Z,6.00
2022-10-09T12:31:34.665Z,6.80
2022-10-09T12:34:04.942Z,8.75
2022-10-09T12:40:18.759Z,5.90
2022-10-09T12:42:47.338Z,7.87
2022-10-09T12:45:18.067Z,8.82
2022-10-09T12:47:45.859Z,7.93
2022-10-09T12:50:27.564Z,6.38
2022-10-09T12:52:58.415Z,8.88
2022-10-09T12:55:30.480Z,3.43
2022-10-09T12:58:03.254Z,8.50
2022-10-09T13:00:33.187Z,4.80
2022-10-09T13:03:01.595Z,6.57
2022-10-09T13:05:37.547Z,7.60
2022-10-09T13:08:05.868Z,3.03
2022-10-09T13:10:35.022Z,5.00
2022-10-09T13:13:06.502Z,3.75
2022-10-09T13:15:35.750Z,5.60
2022-10-09T13:18:14.700Z,3.88
2022-10-09T13:20:42.359Z,3.70
2022-10-09T13:23:28.632Z,4.75
2022-10-09T13:26:01.177Z,3.87
2022-10-09T13:28:31.679Z,4.53
2022-10-09T13:31:07.198Z,2.25
2022-10-09T13:33:35.326Z,4.95
2022-10-09T13:36:03.047Z,4.43
2022-10-09T13:38:34.826Z,4.85
2022-10-09T13:41:04.220Z,3.70
2022-10-09T13:43:32.549Z,2.88
2022-10-09T13:46:00.425Z,4.85
2022-10-09T13:48:29.484Z,5.65
2022-10-09T13:50:59.055Z,3.20
2022-10-09T13:53:27.393Z,4.63
2022-10-09T13:56:00.052Z,2.97
2022-10-09T13:58:31.161Z,4.85
2022-10-09T14:00:59.191Z,5.13
2022-10-09T14:03:26.991Z,4.22
2022-10-09T14:05:58.868Z,3.00
2022-10-09T14:08:26.590Z,1.95
2022-10-09T14:10:54.713Z,4.47
2022-10-09T14:13:22.400Z,3.50
2022-10-09T14:15:52.992Z,3.38
2022-10-09T14:18:20.969Z,2.95
2022-10-09T14:20:49.419Z,4.13
2022-10-09T14:23:17.122Z,3.42
2022-10-09T14:25:44.704Z,11.02
2022-10-09T14:28:12.738Z,6.17
2022-10-09T14:30:41.285Z,8.35
2022-10-09T14:33:10.324Z,6.00
2022-10-09T14:35:38.449Z,4.43
2022-10-09T14:38:06.156Z,4.20
2022-10-09T14:40:33.781Z,2.00
2022-10-09T14:43:01.664Z,5.30
2022-10-09T14:45:29.871Z,14.52
2022-10-09T14:47:57.952Z,2.77
2022-10-09T14:50:27.167Z,5.70
2022-10-09T14:52:55.084Z,4.82
2022-10-09T14:55:22.738Z,7.13
2022-10-09T14:57:50.353Z,5.03
2022-10-09T15:00:18.152Z,5.77
2022-10-09T15:02:45.891Z,2.35
2022-10-09T15:05:13.515Z,3.20
2022-10-09T15:07:42.605Z,6.30
2022-10-09T15:10:10.865Z,6.25
2022-10-09T15:12:38.557Z,3.90
2022-10-09T15:15:06.660Z,5.18
2022-10-09T15:17:34.295Z,3.87
2022-10-09T15:20:01.920Z,6.68
2022-10-09T15:22:29.582Z,3.78
2022-10-09T15:24:58.676Z,5.18
2022-10-09T15:27:27.480Z,4.18
2022-10-09T15:29:55.082Z,3.70
2022-10-09T15:32:22.720Z,4.03
2022-10-09T15:34:50.470Z,4.28
2022-10-09T15:38:22.504Z,3.75
2022-10-09T15:40:53.452Z,9.40
2022-10-09T15:43:23.281Z,4.60
2022-10-09T15:45:51.525Z,3.75
2022-10-09T15:48:21.052Z,3.63
2022-10-09T15:50:51.670Z,7.25
2022-10-09T15:53:21.056Z,3.08
2022-10-09T15:55:52.474Z,5.38
2022-10-09T15:58:20.444Z,4.65
2022-10-09T16:00:50.064Z,4.65
2022-10-09T16:03:19.008Z,3.92
2022-10-09T16:05:48.799Z,5.13
2022-10-09T16:08:17.514Z,6.20
2022-10-09T16:10:48.846Z,7.65
2022-10-09T16:13:19.208Z,5.80
2022-10-09T16:15:51.655Z,5.43
2022-10-09T16:18:21.104Z,6.45
2022-10-09T16:20:49.246Z,3.30
2022-10-09T16:23:18.576Z,3.60
2022-10-09T16:25:57.360Z,7.75
2022-10-09T16:28:26.980Z,8.48
2022-10-09T16:30:54.863Z,6.75
2022-10-09T16:33:26.696Z,6.88
2022-10-09T16:35:54.627Z,10.63
2022-10-09T16:38:22.631Z,4.93
2022-10-09T16:41:01.861Z,5.73
2022-10-09T16:43:34.746Z,7.25
2022-10-09T16:46:13.919Z,6.30
2022-10-09T16:48:41.621Z,4.60
2022-10-09T16:51:10.948Z,2.10
2022-10-09T16:53:38.984Z,6.55
2022-10-09T16:56:12.799Z,2.13
2022-10-09T16:58:43.567Z,8.85
2022-10-09T17:01:12.399Z,5.90
2022-10-09T17:03:41.443Z,5.88
2022-10-09T17:06:10.615Z,5.37
2022-10-09T17:08:38.488Z,6.83
2022-10-09T17:11:08.252Z,7.38
2022-10-09T17:13:35.855Z,7.67
2022-10-09T17:16:07.531Z,6.25
2022-10-09T17:18:36.053Z,3.63
2022-10-09T17:21:04.438Z,4.72
2022-10-09T17:23:36.423Z,8.20
2022-10-09T17:26:06.637Z,6.60
2022-10-09T17:28:35.374Z,13.00
2022-10-09T17:31:10.556Z,4.43
2022-10-09T17:33:42.630Z,7.47
2022-10-09T17:36:10.345Z,8.38
2022-10-09T17:38:38.525Z,4.25
2022-10-09T17:41:08.160Z,6.35
2022-10-09T17:43:39.848Z,5.20
2022-10-09T17:46:10.334Z,8.40
2022-10-09T17:48:43.981Z,4.47
2022-10-09T17:51:16.102Z,5.28
2022-10-09T17:53:44.097Z,4.37
2022-10-09T17:56:13.241Z,3.50
2022-10-09T17:58:41.278Z,4.13
2022-10-09T18:01:12.113Z,2.67
2022-10-09T18:03:39.985Z,5.18
2022-10-09T18:06:09.454Z,8.35
2022-10-09T18:08:38.198Z,4.13
2022-10-09T18:11:10.673Z,4.65
2022-10-09T18:13:41.942Z,4.18
2022-10-09T18:16:13.382Z,7.63
2022-10-09T18:18:41.796Z,4.93
2022-10-09T18:21:14.770Z,3.75
2022-10-09T18:23:42.649Z,5.28
2022-10-09T18:26:11.480Z,4.55
2022-10-09T18:28:41.771Z,6.82
2022-10-09T18:31:15.518Z,4.53
2022-10-09T18:33:43.683Z,5.60
2022-10-09T18:36:19.258Z,6.13
2022-10-09T18:38:48.648Z,6.53
2022-10-09T18:41:16.675Z,4.95
2022-10-09T18:43:45.474Z,5.80
2022-10-09T18:46:19.391Z,4.05
2022-10-09T18:48:47.635Z,4.70
2022-10-09T18:51:17.571Z,3.42
2022-10-09T18:53:50.015Z,8.20
2022-10-09T18:56:19.208Z,5.80
2022-10-09T18:58:48.311Z,4.13
2022-10-09T19:01:21.230Z,5.45
2022-10-09T19:03:50.312Z,4.78
2022-10-09T19:06:19.490Z,7.07
2022-10-09T19:08:48.994Z,6.47
2022-10-09T19:11:17.711Z,5.22
2022-10-09T19:13:46.229Z,10.48
2022-10-09T19:16:14.004Z,6.22
2022-10-09T19:18:43.060Z,6.57
2022-10-09T19:21:14.224Z,9.18
2022-10-09T19:23:41.940Z,6.13
2022-10-09T19:26:13.002Z,11.07
2022-10-09T19:28:41.435Z,11.88
2022-10-09T19:31:11.138Z,6.75
2022-10-09T19:33:44.671Z,5.40
2022-10-09T19:36:13.309Z,7.53
2022-10-09T19:38:42.152Z,8.00
2022-10-09T19:41:12.667Z,10.33
2022-10-09T19:43:41.059Z,9.40
2022-10-09T19:46:11.042Z,6.57
2022-10-09T19:48:40.703Z,5.65
2022-10-09T19:51:18.207Z,7.38
2022-10-09T19:53:46.430Z,8.17
2022-10-09T19:56:16.064Z,6.50
2022-10-09T19:58:49.347Z,6.18
2022-10-09T20:02:18.266Z,3.58
2022-10-09T20:04:52.426Z,11.85
2022-10-09T20:07:22.064Z,5.13
2022-10-09T20:09:49.658Z,6.18
2022-10-09T20:12:17.787Z,6.43
2022-10-09T20:14:45.879Z,5.80
2022-10-09T20:17:14.656Z,6.38
2022-10-09T20:19:45.751Z,9.05
2022-10-09T20:22:14.111Z,6.97
2022-10-09T20:24:43.240Z,5.97
2022-10-09T20:27:11.262Z,5.35
2022-10-09T20:29:39.131Z,5.25
2022-10-09T20:32:07.750Z,10.18
2022-10-09T20:34:35.412Z,6.93
2022-10-09T20:37:03.123Z,5.18
2022-10-09T20:39:31.263Z,7.18
2022-10-09T20:42:02.289Z,8.50
2022-10-09T20:44:30.356Z,4.85
2022-10-09T20:46:58.214Z,6.85
2022-10-09T20:49:26.065Z,11.02
2022-10-09T20:51:53.866Z,8.15
2022-10-09T20:54:22.814Z,7.68
2022-10-09T20:56:50.882Z,10.60
2022-10-09T20:59:20.089Z,10.13
2022-10-09T21:01:48.288Z,8.50
2022-10-09T21:04:17.559Z,8.60
2022-10-09T21:06:45.374Z,10.60
2022-10-09T21:09:13.602Z,10.13
2022-10-09T21:11:41.783Z,10.35
2022-10-09T21:14:11.281Z,7.38
2022-10-09T21:16:41.299Z,13.07
2022-10-09T21:19:09.232Z,9.68
2022-10-09T21:21:37.442Z,5.57
2022-10-09T21:24:07.715Z,12.48
2022-10-09T21:26:36.401Z,10.30
2022-10-09T21:29:05.274Z,10.35
2022-10-09T21:31:33.879Z,7.82
2022-10-09T21:34:03.684Z,10.35
2022-10-09T21:36:36.323Z,10.00
2022-10-09T21:39:05.447Z,9.05
2022-10-09T21:41:34.010Z,8.40
2022-10-09T21:44:02.759Z,7.95
2022-10-09T21:46:31.397Z,9.75
2022-10-09T21:49:03.248Z,8.65
2022-10-09T21:51:36.031Z,12.13
2022-10-09T21:54:03.796Z,10.00
2022-10-09T21:56:32.602Z,7.05
2022-10-09T21:59:00.710Z,8.90
2022-10-09T22:01:29.140Z,6.93
2022-10-09T22:05:00.870Z,12.10
2022-10-09T22:07:30.644Z,10.50
2022-10-09T22:09:58.457Z,7.22
2022-10-09T22:12:26.063Z,8.68
2022-10-09T22:14:54.580Z,9.45
2022-10-09T22:17:22.212Z,6.65
2022-10-09T22:19:49.871Z,8.60
2022-10-09T22:22:17.605Z,9.65
2022-10-09T22:24:47.413Z,10.27
2022-10-09T22:27:15.283Z,9.43
2022-10-09T22:29:44.019Z,12.43
2022-10-09T22:32:12.484Z,11.23
2022-10-09T22:34:40.485Z,9.40
2022-10-09T22:37:08.094Z,7.95
2022-10-09T22:39:37.330Z,11.43
2022-10-09T22:42:06.748Z,11.13
2022-10-09T22:44:34.581Z,10.68
2022-10-09T22:47:02.184Z,8.68
2022-10-09T22:49:29.871Z,9.05
2022-10-09T22:51:58.284Z,10.73
2022-10-09T22:54:26.342Z,11.57
2022-10-09T22:56:54.036Z,14.07
2022-10-09T22:59:23.131Z,9.68
2022-10-09T23:01:53.382Z,7.22
2022-10-09T23:04:22.445Z,14.13
2022-10-09T23:06:51.670Z,9.23
2022-10-09T23:09:21.540Z,12.10
2022-10-09T23:11:49.419Z,13.23
2022-10-09T23:14:18.100Z,10.65
2022-10-09T23:16:49.489Z,9.07
2022-10-09T23:19:17.899Z,15.48
2022-10-09T23:21:46.602Z,11.70
2022-10-09T23:24:18.120Z,10.75
2022-10-09T23:26:46.930Z,12.00
2022-10-09T23:29:16.634Z,10.93
2022-10-09T23:31:45.272Z,9.65
2022-10-09T23:34:14.301Z,9.10
2022-10-09T23:36:42.989Z,8.30
2022-10-09T23:39:10.948Z,13.73
2022-10-09T23:41:39.303Z,12.43
2022-10-09T23:44:07.241Z,12.45
2022-10-09T23:46:37.542Z,9.07
2022-10-09T23:49:06.232Z,16.83
2022-10-09T23:51:38.069Z,10.68
2022-10-09T23:54:07.124Z,11.50
2022-10-09T23:56:36.380Z,9.95
2022-10-09T23:59:06.495Z,11.85
